createdAt,value
2018-09-17T00:00:25.658Z,18.90
2018-09-17T00:02:54.126Z,18.90
2018-09-17T00:05:22.574Z,18.80
2018-09-17T00:07:51.107Z,18.80
2018-09-17T00:10:19.469Z,18.80
2018-09-17T00:12:47.859Z,18.80
2018-09-17T00:15:16.378Z,18.80
2018-09-17T00:17:44.802Z,18.80
2018-09-17T00:20:13.269Z,18.70
2018-09-17T00:22:41.650Z,18.70
2018-09-17T00:25:10.174Z,18.70
2018-09-17T00:27:38.622Z,18.70
2018-09-17T00:30:07.037Z,18.60
2018-09-17T00:32:35.551Z,18.70
2018-09-17T00:35:03.955Z,18.60
2018-09-17T00:37:32.538Z,18.60
2018-09-17T00:40:01.025Z,18.60
2018-09-17T00:42:29.523Z,18.60
2018-09-17T00:44:57.919Z,18.60
2018-09-17T00:47:26.384Z,18.50
2018-09-17T00:49:54.926Z,18.50
2018-09-17T00:52:23.423Z,18.50
2018-09-17T00:54:51.913Z,18.40
2018-09-17T00:57:20.410Z,18.50
2018-09-17T00:59:48.813Z,18.40
2018-09-17T01:02:17.177Z,18.40
2018-09-17T01:04:45.734Z,18.40
2018-09-17T01:07:14.257Z,18.40
2018-09-17T01:09:43.721Z,18.40
2018-09-17T01:12:13.749Z,18.40
2018-09-17T01:14:42.251Z,18.40
2018-09-17T01:17:10.650Z,18.40
2018-09-17T01:19:39.097Z,18.30
2018-09-17T01:22:07.470Z,18.30
2018-09-17T01:24:35.962Z,18.30
2018-09-17T01:27:04.435Z,18.20
2018-09-17T01:29:32.886Z,18.20
2018-09-17T01:32:01.363Z,18.10
2018-09-17T01:34:29.850Z,18.10
2018-09-17T01:36:58.294Z,18.10
2018-09-17T01:39:26.725Z,18.00
2018-09-17T01:41:55.207Z,18.00
2018-09-17T01:44:23.660Z,18.00
2018-09-17T01:46:52.090Z,18.00
2018-09-17T01:49:20.521Z,18.00
2018-09-17T01:51:48.896Z,18.00
2018-09-17T01:54:17.328Z,18.00
2018-09-17T01:56:45.686Z,18.00
2018-09-17T01:59:14.057Z,18.00
2018-09-17T02:01:42.574Z,18.00
2018-09-17T02:04:11.025Z,18.00
2018-09-17T02:06:39.467Z,17.90
2018-09-17T02:09:08.417Z,17.90
2018-09-17T02:11:37.014Z,17.90
2018-09-17T02:14:05.671Z,17.90
2018-09-17T02:16:34.067Z,17.90
2018-09-17T02:19:02.575Z,17.90
2018-09-17T02:21:31.014Z,17.90
2018-09-17T02:23:59.374Z,17.80
2018-09-17T02:26:27.815Z,17.80
2018-09-17T02:28:56.265Z,17.80
2018-09-17T02:31:24.703Z,17.80
2018-09-17T02:33:53.071Z,17.80
2018-09-17T02:36:21.490Z,17.70
2018-09-17T02:38:50.008Z,17.70
2018-09-17T02:41:18.481Z,17.60
2018-09-17T02:43:47.396Z,17.60
2018-09-17T02:46:15.842Z,17.60
2018-09-17T02:48:44.348Z,17.60
2018-09-17T02:51:12.828Z,17.60
2018-09-17T02:53:41.425Z,17.60
2018-09-17T02:56:09.731Z,17.50
2018-09-17T02:58:38.181Z,17.50
2018-09-17T03:01:06.647Z,17.50
2018-09-17T03:03:35.218Z,17.40
2018-09-17T03:06:03.711Z,17.40
2018-09-17T03:08:32.111Z,17.40
2018-09-17T03:11:00.671Z,17.30
2018-09-17T03:13:29.952Z,17.30
2018-09-17T03:15:58.418Z,17.30
2018-09-17T03:18:38.862Z,17.30
2018-09-17T03:21:07.789Z,17.30
2018-09-17T03:23:37.227Z,17.30
2018-09-17T03:26:05.890Z,17.30
2018-09-17T03:28:34.506Z,17.30
2018-09-17T03:31:03.012Z,17.30
2018-09-17T03:33:31.440Z,17.20
2018-09-17T03:35:59.913Z,17.20
2018-09-17T03:38:36.823Z,17.20
2018-09-17T03:41:06.405Z,17.20
2018-09-17T03:43:35.785Z,17.20
2018-09-17T03:46:04.314Z,17.20
2018-09-17T03:48:34.260Z,17.10
2018-09-17T03:51:03.395Z,17.10
2018-09-17T03:53:32.089Z,17.10
2018-09-17T03:56:00.669Z,17.10
2018-09-17T03:58:29.749Z,17.20
2018-09-17T04:00:58.753Z,17.20
2018-09-17T04:03:27.215Z,17.20
2018-09-17T04:05:55.656Z,17.30
2018-09-17T04:08:24.079Z,17.30
2018-09-17T04:10:52.588Z,17.30
2018-09-17T04:13:21.030Z,17.30
2018-09-17T04:15:49.442Z,17.20
2018-09-17T04:18:17.872Z,17.30
2018-09-17T04:20:46.303Z,17.30
2018-09-17T04:23:18.874Z,17.30
2018-09-17T04:25:47.438Z,17.30
2018-09-17T04:28:16.021Z,17.30
2018-09-17T04:30:44.597Z,17.30
2018-09-17T04:33:13.084Z,17.30
2018-09-17T04:35:41.595Z,17.30
2018-09-17T04:38:09.975Z,17.30
2018-09-17T04:40:38.342Z,17.30
2018-09-17T04:43:06.814Z,17.20
2018-09-17T04:45:35.319Z,17.20
2018-09-17T04:48:03.723Z,17.20
2018-09-17T04:50:32.117Z,17.20
2018-09-17T04:53:00.615Z,17.20
2018-09-17T04:55:28.983Z,17.20
2018-09-17T04:57:57.386Z,17.20
2018-09-17T05:00:25.857Z,17.20
2018-09-17T05:02:54.270Z,17.10
2018-09-17T05:05:22.681Z,17.10
2018-09-17T05:07:51.057Z,17.10
2018-09-17T05:10:19.465Z,17.10
2018-09-17T05:12:47.947Z,17.10
2018-09-17T05:15:16.369Z,17.10
2018-09-17T05:17:44.874Z,17.10
2018-09-17T05:20:13.360Z,17.10
2018-09-17T05:22:41.872Z,17.00
2018-09-17T05:25:10.276Z,17.00
2018-09-17T05:27:38.869Z,17.00
2018-09-17T05:30:07.384Z,16.90
2018-09-17T05:32:35.778Z,16.90
2018-09-17T05:35:04.421Z,16.90
2018-09-17T05:37:32.873Z,16.90
2018-09-17T05:40:01.309Z,16.90
2018-09-17T05:42:29.829Z,16.90
2018-09-17T05:44:58.297Z,16.90
2018-09-17T05:47:26.844Z,17.00
2018-09-17T05:49:55.267Z,17.00
2018-09-17T05:52:23.720Z,17.00
2018-09-17T05:54:52.104Z,17.10
2018-09-17T05:57:20.578Z,17.10
2018-09-17T05:59:49.055Z,17.10
2018-09-17T06:02:17.525Z,17.10
2018-09-17T06:04:46.103Z,17.10
2018-09-17T06:07:14.461Z,17.10
2018-09-17T06:09:43.049Z,17.10
2018-09-17T06:12:11.493Z,17.10
2018-09-17T06:14:40.096Z,17.10
2018-09-17T06:17:08.565Z,17.20
2018-09-17T06:19:37.056Z,17.20
2018-09-17T06:22:05.589Z,17.40
2018-09-17T06:24:34.232Z,17.50
2018-09-17T06:27:02.794Z,17.60
2018-09-17T06:29:31.345Z,17.70
2018-09-17T06:31:59.844Z,17.80
2018-09-17T06:34:28.326Z,17.80
2018-09-17T06:39:25.179Z,18.00
2018-09-17T06:41:53.703Z,18.10
2018-09-17T06:44:22.217Z,18.10
2018-09-17T06:46:50.609Z,18.10
2018-09-17T06:49:18.988Z,18.20
2018-09-17T06:51:47.419Z,18.30
2018-09-17T06:54:15.948Z,18.40
2018-09-17T06:56:44.377Z,18.40
2018-09-17T06:59:12.786Z,18.40
2018-09-17T07:01:41.301Z,18.50
2018-09-17T07:04:09.690Z,18.50
2018-09-17T07:06:38.259Z,18.60
2018-09-17T07:09:08.870Z,18.60
2018-09-17T07:11:37.305Z,18.70
2018-09-17T07:14:05.954Z,18.80
2018-09-17T07:16:34.370Z,18.80
2018-09-17T07:19:02.722Z,18.90
2018-09-17T07:21:31.611Z,18.90
2018-09-17T07:24:00.006Z,19.00
2018-09-17T07:26:28.738Z,19.00
2018-09-17T07:28:57.425Z,19.10
2018-09-17T07:31:25.947Z,19.20
2018-09-17T07:33:54.348Z,19.20
2018-09-17T07:36:22.914Z,19.20
2018-09-17T07:38:51.286Z,19.30
2018-09-17T07:41:19.710Z,19.30
2018-09-17T07:43:48.282Z,19.40
2018-09-17T07:46:16.690Z,19.50
2018-09-17T07:48:45.082Z,19.50
2018-09-17T07:51:13.546Z,19.60
2018-09-17T07:53:42.126Z,19.60
2018-09-17T07:56:10.710Z,19.60
2018-09-17T07:58:39.101Z,19.70
2018-09-17T08:01:07.802Z,19.80
2018-09-17T08:03:36.232Z,19.80
2018-09-17T08:06:04.755Z,19.90
2018-09-17T08:08:33.466Z,19.90
2018-09-17T08:11:02.023Z,20.00
2018-09-17T08:13:30.442Z,20.10
2018-09-17T08:15:58.877Z,20.20
2018-09-17T08:18:27.262Z,20.20
2018-09-17T08:20:55.701Z,20.30
2018-09-17T08:23:24.280Z,20.30
2018-09-17T08:25:52.760Z,20.30
2018-09-17T08:28:21.148Z,20.20
2018-09-17T08:30:49.573Z,20.20
2018-09-17T08:33:17.947Z,20.20
2018-09-17T08:35:46.303Z,20.30
2018-09-17T08:38:14.745Z,20.30
2018-09-17T08:40:43.228Z,20.30
2018-09-17T08:43:11.662Z,20.30
2018-09-17T08:45:40.083Z,20.40
2018-09-17T08:48:08.712Z,20.40
2018-09-17T08:50:37.138Z,20.50
2018-09-17T08:53:06.017Z,20.60
2018-09-17T08:55:39.688Z,20.70
2018-09-17T08:58:13.550Z,20.80
2018-09-17T09:00:49.234Z,20.90
2018-09-17T09:03:23.189Z,21.00
2018-09-17T09:05:56.825Z,21.10
2018-09-17T09:08:25.515Z,21.20
2018-09-17T09:10:59.291Z,21.30
2018-09-17T09:13:33.151Z,21.40
2018-09-17T09:16:01.582Z,21.50
2018-09-17T09:18:30.042Z,21.60
2018-09-17T09:20:58.577Z,21.70
2018-09-17T09:23:26.965Z,21.80
2018-09-17T09:25:55.420Z,21.80
2018-09-17T09:28:23.808Z,21.90
2018-09-17T09:30:52.337Z,22.00
2018-09-17T09:33:20.726Z,22.00
2018-09-17T09:35:49.150Z,22.10
2018-09-17T09:38:17.584Z,22.20
2018-09-17T09:40:46.194Z,22.30
2018-09-17T09:43:14.542Z,22.30
2018-09-17T09:45:42.917Z,22.50
2018-09-17T09:48:11.406Z,22.50
2018-09-17T09:50:39.957Z,22.60
2018-09-17T09:53:08.369Z,22.70
2018-09-17T09:55:36.751Z,22.70
2018-09-17T09:58:05.391Z,22.80
2018-09-17T10:00:39.184Z,22.90
2018-09-17T10:03:13.342Z,23.00
2018-09-17T10:05:41.837Z,23.00
2018-09-17T10:08:10.436Z,23.20
2018-09-17T10:10:44.157Z,23.30
2018-09-17T10:13:18.011Z,23.40
2018-09-17T10:15:50.689Z,23.60
2018-09-17T10:18:24.645Z,23.70
2018-09-17T10:20:53.025Z,23.90
2018-09-17T10:23:21.422Z,24.10
2018-09-17T10:25:49.800Z,24.40
2018-09-17T10:28:18.313Z,24.40
2018-09-17T10:30:46.734Z,24.50
2018-09-17T10:33:15.198Z,24.60
2018-09-17T10:35:43.730Z,24.80
2018-09-17T10:38:12.178Z,25.10
2018-09-17T10:40:40.566Z,25.40
2018-09-17T10:43:08.986Z,25.60
2018-09-17T10:45:37.498Z,25.80
2018-09-17T10:48:05.966Z,25.90
2018-09-17T10:50:34.397Z,26.00
2018-09-17T10:53:02.931Z,26.10
2018-09-17T10:55:31.303Z,26.30
2018-09-17T10:57:59.701Z,26.40
2018-09-17T11:00:28.103Z,26.60
2018-09-17T11:02:56.583Z,26.70
2018-09-17T11:05:24.981Z,26.80
2018-09-17T11:07:53.375Z,26.80
2018-09-17T11:10:21.751Z,26.90
2018-09-17T11:12:50.298Z,27.00
2018-09-17T11:15:18.736Z,27.20
2018-09-17T11:17:47.129Z,27.30
2018-09-17T11:20:15.577Z,27.40
2018-09-17T11:22:43.954Z,27.60
2018-09-17T11:25:12.471Z,27.70
2018-09-17T11:27:41.031Z,27.80
2018-09-17T11:30:09.422Z,27.80
2018-09-17T11:32:37.838Z,27.90
2018-09-17T11:35:06.270Z,28.10
2018-09-17T11:37:34.637Z,28.30
2018-09-17T11:40:03.199Z,28.40
2018-09-17T11:42:31.587Z,28.60
2018-09-17T11:44:59.941Z,28.60
2018-09-17T11:47:28.438Z,28.70
2018-09-17T11:49:56.984Z,28.80
2018-09-17T11:52:25.513Z,28.90
2018-09-17T11:54:53.993Z,29.00
2018-09-17T11:57:22.509Z,29.10
2018-09-17T11:59:50.984Z,29.30
2018-09-17T12:02:24.696Z,29.30
2018-09-17T12:04:59.467Z,29.50
2018-09-17T12:07:33.211Z,29.50
2018-09-17T12:10:01.799Z,29.70
2018-09-17T12:12:30.414Z,29.80
2018-09-17T12:14:58.818Z,29.90
2018-09-17T12:17:27.216Z,30.00
2018-09-17T12:19:55.821Z,30.10
2018-09-17T12:22:24.190Z,30.10
2018-09-17T12:24:52.882Z,30.20
2018-09-17T12:27:21.332Z,30.30
2018-09-17T12:29:49.725Z,30.40
2018-09-17T12:32:18.188Z,30.50
2018-09-17T12:34:46.623Z,30.50
2018-09-17T12:37:15.408Z,30.70
2018-09-17T12:39:43.997Z,30.80
2018-09-17T12:42:12.402Z,30.90
2018-09-17T12:44:41.145Z,31.00
2018-09-17T12:47:09.648Z,31.10
2018-09-17T12:49:38.054Z,31.10
2018-09-17T12:52:06.793Z,31.10
2018-09-17T12:54:35.193Z,31.10
2018-09-17T12:57:03.733Z,31.10
2018-09-17T12:59:32.086Z,31.00
2018-09-17T13:02:00.493Z,30.90
2018-09-17T13:04:29.011Z,30.90
2018-09-17T13:06:57.663Z,30.90
2018-09-17T13:09:26.181Z,30.90
2018-09-17T13:11:54.543Z,30.80
2018-09-17T13:14:23.130Z,30.70
2018-09-17T13:16:51.547Z,30.60
2018-09-17T13:19:19.915Z,30.60
2018-09-17T13:21:48.275Z,30.50
2018-09-17T13:24:16.781Z,30.50
2018-09-17T13:26:45.211Z,30.40
2018-09-17T13:29:13.542Z,30.50
2018-09-17T13:31:42.079Z,30.50
2018-09-17T13:34:10.475Z,30.50
2018-09-17T13:36:42.026Z,30.50
2018-09-17T13:39:10.481Z,30.40
2018-09-17T13:41:38.882Z,30.30
2018-09-17T13:44:07.415Z,30.20
2018-09-17T13:46:35.820Z,30.20
2018-09-17T13:49:04.373Z,30.10
2018-09-17T13:51:32.798Z,30.10
2018-09-17T13:54:01.353Z,30.10
2018-09-17T13:56:29.849Z,30.10
2018-09-17T13:58:58.223Z,30.10
2018-09-17T14:01:26.663Z,30.10
2018-09-17T14:03:55.187Z,30.10
2018-09-17T14:06:23.622Z,30.20
2018-09-17T14:08:52.237Z,30.30
2018-09-17T14:11:20.719Z,30.30
2018-09-17T14:13:49.231Z,30.40
2018-09-17T14:16:21.875Z,30.50
2018-09-17T14:18:50.374Z,30.50
2018-09-17T14:21:18.801Z,30.50
2018-09-17T14:23:47.336Z,30.50
2018-09-17T14:26:15.701Z,30.50
2018-09-17T14:28:44.037Z,30.60
2018-09-17T14:31:12.530Z,30.60
2018-09-17T14:33:41.246Z,30.60
2018-09-17T14:36:09.765Z,30.60
2018-09-17T14:38:38.273Z,30.60
2018-09-17T14:41:06.734Z,30.60
2018-09-17T14:43:35.184Z,30.60
2018-09-17T14:46:03.536Z,30.60
2018-09-17T14:48:32.031Z,30.50
2018-09-17T14:51:00.519Z,30.50
2018-09-17T14:53:29.099Z,30.50
2018-09-17T14:55:57.486Z,30.50
2018-09-17T14:58:26.029Z,30.50
2018-09-17T15:00:54.332Z,30.50
2018-09-17T15:03:22.788Z,30.50
2018-09-17T15:05:51.245Z,30.50
2018-09-17T15:08:19.753Z,30.50
2018-09-17T15:10:48.276Z,30.40
2018-09-17T15:13:16.852Z,30.40
2018-09-17T15:15:51.431Z,30.30
2018-09-17T15:18:19.945Z,30.20
2018-09-17T15:20:48.459Z,30.10
2018-09-17T15:23:16.826Z,30.00
2018-09-17T15:25:45.509Z,30.00
2018-09-17T15:28:13.999Z,29.90
2018-09-17T15:30:42.379Z,29.70
2018-09-17T15:33:10.952Z,29.60
2018-09-17T15:35:39.394Z,29.50
2018-09-17T15:38:07.991Z,29.40
2018-09-17T15:40:36.528Z,29.20
2018-09-17T15:43:05.038Z,29.10
2018-09-17T15:45:33.503Z,29.00
2018-09-17T15:48:02.064Z,28.90
2018-09-17T15:50:30.542Z,28.80
2018-09-17T15:52:58.998Z,28.70
2018-09-17T15:55:27.612Z,28.60
2018-09-17T15:57:56.185Z,28.60
2018-09-17T16:00:24.592Z,28.40
2018-09-17T16:02:52.999Z,28.40
2018-09-17T16:05:21.539Z,28.30
2018-09-17T16:07:50.012Z,28.20
2018-09-17T16:10:18.504Z,28.20
2018-09-17T16:12:47.055Z,28.10
2018-09-17T16:15:15.485Z,28.00
2018-09-17T16:17:43.878Z,28.00
2018-09-17T16:20:12.478Z,27.90
2018-09-17T16:22:40.882Z,27.90
2018-09-17T16:25:09.419Z,27.80
2018-09-17T16:27:37.778Z,27.70
2018-09-17T16:30:08.027Z,27.60
2018-09-17T16:32:36.537Z,27.60
2018-09-17T16:35:05.062Z,27.50
2018-09-17T16:37:33.550Z,27.40
2018-09-17T16:40:02.066Z,27.40
2018-09-17T16:42:30.427Z,27.30
2018-09-17T16:44:58.931Z,27.30
2018-09-17T16:47:27.456Z,27.20
2018-09-17T16:49:55.907Z,27.10
2018-09-17T16:52:24.359Z,27.10
2018-09-17T16:54:52.822Z,27.10
2018-09-17T16:57:21.269Z,27.00
2018-09-17T16:59:50.142Z,27.00
2018-09-17T17:02:18.826Z,26.90
2018-09-17T17:04:47.288Z,26.90
2018-09-17T17:07:15.778Z,26.80
2018-09-17T17:09:44.303Z,26.80
2018-09-17T17:12:12.871Z,26.70
2018-09-17T17:14:41.288Z,26.70
2018-09-17T17:17:09.731Z,26.60
2018-09-17T17:19:38.272Z,26.50
2018-09-17T17:22:06.742Z,26.50
2018-09-17T17:24:35.500Z,26.50
2018-09-17T17:27:04.026Z,26.40
2018-09-17T17:29:32.567Z,26.40
2018-09-17T17:32:01.137Z,26.30
2018-09-17T17:34:29.804Z,26.30
2018-09-17T17:36:58.412Z,26.20
2018-09-17T17:39:28.573Z,26.10
2018-09-17T17:41:57.698Z,26.00
2018-09-17T17:44:27.581Z,25.90
2018-09-17T17:46:56.651Z,25.80
2018-09-17T17:49:25.883Z,25.70
2018-09-17T17:51:56.080Z,25.50
2018-09-17T17:54:25.196Z,25.40
2018-09-17T17:56:53.698Z,25.20
2018-09-17T17:59:22.343Z,25.10
2018-09-17T18:01:51.383Z,25.00
2018-09-17T18:04:20.045Z,24.90
2018-09-17T18:06:48.617Z,24.80
2018-09-17T18:09:17.107Z,24.70
2018-09-17T18:11:45.565Z,24.60
2018-09-17T18:14:14.077Z,24.60
2018-09-17T18:16:42.570Z,24.60
2018-09-17T18:19:11.060Z,24.60
2018-09-17T18:21:40.562Z,24.70
2018-09-17T18:24:08.961Z,24.70
2018-09-17T18:26:37.661Z,24.70
2018-09-17T18:29:06.221Z,24.60
2018-09-17T18:31:34.637Z,24.60
2018-09-17T18:34:03.031Z,24.50
2018-09-17T18:36:31.552Z,24.40
2018-09-17T18:39:00.219Z,24.30
2018-09-17T18:41:28.627Z,24.30
2018-09-17T18:43:57.194Z,24.20
2018-09-17T18:46:25.826Z,24.20
2018-09-17T18:48:54.235Z,24.10
2018-09-17T18:51:23.918Z,24.10
2018-09-17T18:53:53.285Z,24.10
2018-09-17T18:56:21.803Z,24.10
2018-09-17T18:58:50.417Z,24.00
2018-09-17T19:01:19.042Z,24.00
2018-09-17T19:03:47.598Z,24.00
2018-09-17T19:06:16.098Z,24.00
2018-09-17T19:08:44.781Z,23.90
2018-09-17T19:11:13.269Z,23.90
2018-09-17T19:13:41.913Z,23.90
2018-09-17T19:16:10.454Z,23.80
2018-09-17T19:18:38.893Z,23.80
2018-09-17T19:21:07.580Z,23.70
2018-09-17T19:23:41.137Z,23.60
2018-09-17T19:26:09.895Z,23.60
2018-09-17T19:28:43.606Z,23.60
2018-09-17T19:31:12.131Z,23.60
2018-09-17T19:33:40.609Z,23.50
2018-09-17T19:36:09.367Z,23.50
2018-09-17T19:38:43.246Z,23.50
2018-09-17T19:41:11.843Z,23.40
2018-09-17T19:43:40.456Z,23.40
2018-09-17T19:46:14.290Z,23.40
2018-09-17T19:48:42.706Z,23.40
2018-09-17T19:51:16.536Z,23.30
2018-09-17T19:53:45.000Z,23.30
2018-09-17T19:56:13.492Z,23.20
2018-09-17T19:58:47.246Z,23.10
2018-09-17T20:01:15.716Z,23.00
2018-09-17T20:03:44.223Z,23.00
2018-09-17T20:06:18.031Z,23.00
2018-09-17T20:08:46.562Z,22.90
2018-09-17T20:11:15.175Z,22.80
2018-09-17T20:13:43.620Z,22.90
2018-09-17T20:16:18.234Z,22.80
2018-09-17T20:18:46.878Z,22.90
2018-09-17T20:21:15.486Z,22.80
2018-09-17T20:23:43.933Z,22.80
2018-09-17T20:26:12.346Z,22.80
2018-09-17T20:28:40.765Z,22.70
2018-09-17T20:31:09.232Z,22.70
2018-09-17T20:33:37.587Z,22.60
2018-09-17T20:36:12.794Z,22.60
2018-09-17T20:38:41.362Z,22.60
2018-09-17T20:41:09.837Z,22.50
2018-09-17T20:43:38.503Z,22.50
2018-09-17T20:46:07.053Z,22.50
2018-09-17T20:48:35.613Z,22.50
2018-09-17T20:51:05.069Z,22.50
2018-09-17T20:53:33.550Z,22.50
2018-09-17T20:56:02.129Z,22.40
2018-09-17T20:58:30.577Z,22.30
2018-09-17T21:00:59.132Z,22.30
2018-09-17T21:03:27.574Z,22.20
2018-09-17T21:05:56.068Z,22.20
2018-09-17T21:08:24.612Z,22.20
2018-09-17T21:10:53.026Z,22.20
2018-09-17T21:13:21.520Z,22.20
2018-09-17T21:15:49.891Z,22.20
2018-09-17T21:18:18.501Z,22.10
2018-09-17T21:20:46.886Z,22.10
2018-09-17T21:23:15.533Z,22.10
2018-09-17T21:25:43.947Z,22.10
2018-09-17T21:28:12.477Z,22.10
2018-09-17T21:30:40.946Z,22.00
2018-09-17T21:33:09.443Z,22.00
2018-09-17T21:35:37.832Z,22.00
2018-09-17T21:38:06.377Z,21.90
2018-09-17T21:40:34.911Z,22.00
2018-09-17T21:43:03.670Z,21.90
2018-09-17T21:45:32.000Z,21.80
2018-09-17T21:48:00.510Z,21.80
2018-09-17T21:50:28.972Z,21.80
2018-09-17T21:52:57.647Z,21.70
2018-09-17T21:55:26.197Z,21.60
2018-09-17T21:57:54.684Z,21.50
2018-09-17T22:00:23.051Z,21.50
2018-09-17T22:02:51.841Z,21.50
2018-09-17T22:05:20.433Z,21.50
2018-09-17T22:07:49.126Z,21.50
2018-09-17T22:10:17.738Z,21.50
2018-09-17T22:12:46.522Z,21.50
2018-09-17T22:15:14.936Z,21.50
2018-09-17T22:17:43.497Z,21.50
2018-09-17T22:20:11.938Z,21.50
2018-09-17T22:22:40.345Z,21.50
2018-09-17T22:25:08.818Z,21.50
2018-09-17T22:27:37.270Z,21.50
2018-09-17T22:30:05.961Z,21.50
2018-09-17T22:32:34.455Z,21.40
2018-09-17T22:35:03.091Z,21.40
2018-09-17T22:37:31.715Z,21.40
2018-09-17T22:40:00.245Z,21.40
2018-09-17T22:42:29.174Z,21.40
2018-09-17T22:44:57.694Z,21.30
2018-09-17T22:47:26.172Z,21.30
2018-09-17T22:49:54.684Z,21.30
2018-09-17T22:52:23.091Z,21.30
2018-09-17T22:54:51.691Z,21.30
2018-09-17T22:57:20.096Z,21.30
2018-09-17T22:59:48.525Z,21.20
2018-09-17T23:02:17.049Z,21.20
2018-09-17T23:04:45.570Z,21.20
2018-09-17T23:07:14.005Z,21.20
2018-09-17T23:09:42.431Z,21.10
2018-09-17T23:12:10.983Z,21.10
2018-09-17T23:14:39.366Z,21.10
2018-09-17T23:17:07.869Z,21.10
2018-09-17T23:19:36.375Z,21.10
2018-09-17T23:22:04.823Z,21.10
2018-09-17T23:24:33.262Z,21.10
2018-09-17T23:27:01.764Z,21.10
2018-09-17T23:29:30.106Z,21.10
2018-09-17T23:31:58.541Z,21.10
2018-09-17T23:34:26.986Z,21.10
2018-09-17T23:36:55.413Z,21.10
2018-09-17T23:39:23.843Z,21.10
2018-09-17T23:41:52.411Z,21.00
2018-09-17T23:44:20.842Z,21.00
2018-09-17T23:46:49.322Z,21.00
2018-09-17T23:49:17.762Z,21.00
2018-09-17T23:51:46.240Z,20.90
2018-09-17T23:54:14.590Z,21.00
2018-09-17T23:56:43.651Z,20.90
2018-09-17T23:59:12.103Z,20.90
